Time;durP1;ratioP1;P1;durP2;ratioP2;P2;SDS_P1;SDS_P2;PMS_P1;PMS_P2;Temp;Humidity;BMP_temperature;BMP_pressure;BME280_temperature;BME280_humidity;BME280_pressure;Samples;Min_cycle;Max_cycle;Signal;HPM_P1;HPM_P2
2021/06/23 00:02:23;;;;;;;12.70;4.03;;;14.80;99.90;;;;;;5015208;28;20169;-90
2021/06/23 00:04:51;;;;;;;12.18;4.30;;;14.90;99.90;;;;;;5017034;28;20179;-90
2021/06/23 00:07:16;;;;;;;9.45;3.30;;;15.00;99.90;;;;;;5017576;28;20173;-90
2021/06/23 00:09:42;;;;;;;15.38;4.20;;;15.10;99.90;;;;;;5021120;28;20287;-90
2021/06/23 00:12:14;;;;;;;20.38;4.07;;;15.10;99.90;;;;;;5016666;28;20189;-89
2021/06/23 00:14:41;;;;;;;10.07;2.80;;;15.10;99.90;;;;;;5015594;28;20200;-89
2021/06/23 00:17:07;;;;;;;10.15;3.03;;;15.00;99.90;;;;;;5013695;28;20173;-89
2021/06/23 00:19:32;;;;;;;15.32;2.85;;;14.80;99.90;;;;;;5017136;28;20169;-87
2021/06/23 00:21:58;;;;;;;13.90;2.70;;;14.70;99.90;;;;;;5023255;28;20169;-86
2021/06/23 00:24:23;;;;;;;8.50;2.90;;;14.70;99.90;;;;;;5015999;28;20613;-85
2021/06/23 00:26:49;;;;;;;9.65;2.60;;;14.70;99.90;;;;;;5021033;28;20225;-88
2021/06/23 00:29:15;;;;;;;10.18;2.92;;;14.70;99.90;;;;;;5017317;28;20168;-88
2021/06/23 00:31:40;;;;;;;8.65;2.53;;;14.60;99.90;;;;;;5032458;28;20201;-88
2021/06/23 00:34:11;;;;;;;10.20;2.80;;;14.60;99.90;;;;;;5016561;28;20660;-88
2021/06/23 00:36:37;;;;;;;8.25;2.53;;;14.70;99.90;;;;;;5015305;28;20176;-89
2021/06/23 00:39:03;;;;;;;4.18;1.90;;;14.70;99.90;;;;;;5017430;28;20165;-89
2021/06/23 00:41:29;;;;;;;11.55;2.67;;;14.60;99.90;;;;;;5017373;28;20215;-89
2021/06/23 00:43:55;;;;;;;8.15;2.35;;;14.50;99.90;;;;;;5048804;28;20173;-88
2021/06/23 00:46:21;;;;;;;9.10;2.50;;;14.50;99.90;;;;;;5015770;28;20685;-89
2021/06/23 00:48:54;;;;;;;9.50;2.42;;;14.50;99.90;;;;;;5016001;28;20168;-89
2021/06/23 00:51:20;;;;;;;16.58;2.88;;;14.50;99.90;;;;;;5017184;28;20192;-90
2021/06/23 00:53:46;;;;;;;11.10;2.47;;;14.50;99.90;;;;;;5030661;28;20204;-88
2021/06/23 00:56:12;;;;;;;8.48;2.28;;;14.60;99.90;;;;;;5016735;28;20180;-89
2021/06/23 00:58:39;;;;;;;12.93;2.50;;;14.60;99.90;;;;;;5016367;28;20176;-90
2021/06/23 01:01:04;;;;;;;9.43;3.03;;;14.60;99.90;;;;;;5015326;28;20180;-87
2021/06/23 01:03:30;;;;;;;12.05;2.60;;;14.50;99.90;;;;;;5031171;28;20172;-88
2021/06/23 01:05:56;;;;;;;13.45;3.00;;;14.40;99.90;;;;;;5019082;28;20629;-88
2021/06/23 01:08:22;;;;;;;12.73;2.70;;;14.30;99.90;;;;;;5016057;28;20176;-90
2021/06/23 01:10:48;;;;;;;17.70;3.25;;;14.10;99.90;;;;;;5014844;28;20169;-89
2021/06/23 01:13:33;;;;;;;17.10;4.30;;;14.10;99.90;;;;;;5014400;28;20169;-88
2021/06/23 01:15:59;;;;;;;10.93;3.38;;;14.10;99.90;;;;;;5015559;28;20215;-91
2021/06/23 01:18:25;;;;;;;7.55;2.92;;;14.10;99.90;;;;;;5047577;28;20200;-89
2021/06/23 01:20:52;;;;;;;11.52;2.95;;;14.10;99.90;;;;;;5014536;28;20180;-89
2021/06/23 01:23:18;;;;;;;16.80;3.28;;;14.20;99.90;;;;;;5015063;28;20173;-91
2021/06/23 01:25:46;;;;;;;11.45;3.30;;;14.30;99.90;;;;;;5015341;28;20181;-90
2021/06/23 01:28:11;;;;;;;13.20;3.20;;;14.40;99.90;;;;;;5015477;28;20196;-91
2021/06/23 01:30:37;;;;;;;12.70;3.58;;;14.30;99.90;;;;;;5014134;28;20169;-88
2021/06/23 01:33:05;;;;;;;9.48;3.53;;;14.30;99.90;;;;;;5017602;28;20199;-89
2021/06/23 01:35:31;;;;;;;13.18;3.40;;;14.20;99.90;;;;;;5015658;28;20736;-90
2021/06/23 01:38:00;;;;;;;7.25;3.70;;;14.20;99.90;;;;;;5016542;28;20204;-88
2021/06/23 01:40:26;;;;;;;14.95;4.63;;;14.20;99.90;;;;;;5015831;28;20515;-90
2021/06/23 01:42:51;;;;;;;13.68;3.80;;;14.00;99.90;;;;;;5031522;28;20165;-87
2021/06/23 01:45:17;;;;;;;10.50;4.20;;;13.80;99.90;;;;;;5014320;28;20189;-88
2021/06/23 01:47:43;;;;;;;11.48;4.00;;;13.70;99.90;;;;;;5023968;28;20179;-89
2021/06/23 01:50:11;;;;;;;18.98;4.80;;;13.70;99.90;;;;;;5048151;28;20610;-86
2021/06/23 01:52:41;;;;;;;7.93;4.38;;;13.80;99.90;;;;;;5015360;28;20172;-89
2021/06/23 01:55:08;;;;;;;11.50;4.22;;;13.70;99.90;;;;;;5015244;28;20191;-89
2021/06/23 01:57:40;;;;;;;14.75;4.70;;;13.70;99.90;;;;;;5014326;28;20169;-89
2021/06/23 02:00:10;;;;;;;12.15;4.40;;;13.80;99.90;;;;;;5030151;28;20180;-90
2021/06/23 02:02:47;;;;;;;11.93;4.03;;;13.70;99.90;;;;;;5013193;28;20184;-88
2021/06/23 02:05:33;;;;;;;18.67;6.30;;;13.70;99.90;;;;;;5013028;28;20181;-88
2021/06/23 02:08:05;;;;;;;17.08;5.10;;;13.80;99.90;;;;;;5012869;28;20203;-89
2021/06/23 02:11:03;;;;;;;21.27;4.53;;;13.80;99.90;;;;;;5016328;28;20168;-89
2021/06/23 02:13:28;;;;;;;9.95;4.30;;;13.70;99.90;;;;;;5031555;28;20258;-86
2021/06/23 02:16:03;;;;;;;17.83;5.38;;;13.70;99.90;;;;;;5047551;28;20272;-90
2021/06/23 02:18:29;;;;;;;10.27;5.18;;;13.80;99.90;;;;;;5015670;28;20206;-89
2021/06/23 02:20:57;;;;;;;13.48;5.55;;;13.80;99.90;;;;;;5014295;28;20246;-88
2021/06/23 02:23:23;;;;;;;13.75;5.90;;;13.80;99.90;;;;;;5021079;28;20172;-89
2021/06/23 02:25:50;;;;;;;14.90;5.80;;;13.60;99.90;;;;;;5017863;28;20185;-90
2021/06/23 02:28:16;;;;;;;11.18;5.88;;;13.60;99.90;;;;;;5015594;28;20161;-86
2021/06/23 02:30:42;;;;;;;15.95;6.40;;;13.80;99.90;;;;;;5012707;28;20168;-90
2021/06/23 02:33:10;;;;;;;10.23;6.00;;;13.80;99.90;;;;;;5015566;28;20223;-88
2021/06/23 02:35:38;;;;;;;21.30;6.63;;;13.80;99.90;;;;;;5020195;28;20223;-89
2021/06/23 02:38:05;;;;;;;17.52;6.55;;;13.80;99.90;;;;;;5019445;28;20197;-90
2021/06/23 02:40:31;;;;;;;11.73;6.50;;;14.00;99.90;;;;;;4995933;28;20605;-88
2021/06/23 02:42:57;;;;;;;16.65;7.28;;;14.10;99.90;;;;;;5013524;28;20231;-90
2021/06/23 02:45:27;;;;;;;17.33;6.55;;;14.20;99.90;;;;;;5030206;28;20235;-88
2021/06/23 02:47:53;;;;;;;16.38;6.22;;;14.10;99.90;;;;;;5014242;28;20180;-87
2021/06/23 02:50:20;;;;;;;20.67;6.32;;;13.90;99.90;;;;;;5014094;28;20591;-90
2021/06/23 02:52:46;;;;;;;18.20;6.47;;;14.00;99.90;;;;;;5014172;28;20165;-89
2021/06/23 02:55:19;;;;;;;12.15;6.13;;;14.10;99.90;;;;;;5015083;28;20192;-88
2021/06/23 02:57:45;;;;;;;20.85;6.65;;;13.90;99.90;;;;;;5014477;28;20275;-89
2021/06/23 03:00:12;;;;;;;10.13;6.03;;;13.90;99.90;;;;;;5009921;28;20190;-83
2021/06/23 03:02:38;;;;;;;16.85;7.60;;;13.90;99.90;;;;;;5013679;28;20183;-89
2021/06/23 03:05:04;;;;;;;16.77;6.57;;;14.00;99.90;;;;;;5033237;28;20263;-89
2021/06/23 03:07:30;;;;;;;15.50;6.85;;;14.20;99.90;;;;;;5022958;28;20177;-88
2021/06/23 03:10:08;;;;;;;10.98;6.05;;;14.40;99.90;;;;;;5014911;28;20184;-88
2021/06/23 03:12:34;;;;;;;12.82;5.97;;;14.50;99.90;;;;;;5012520;28;20178;-89
2021/06/23 03:15:00;;;;;;;10.48;6.40;;;14.40;99.90;;;;;;5012814;28;20295;-88
2021/06/23 03:17:26;;;;;;;19.08;7.05;;;14.20;99.90;;;;;;5045157;28;20173;-87
2021/06/23 03:19:53;;;;;;;16.27;7.53;;;13.90;99.90;;;;;;5011153;28;20517;-89
2021/06/23 03:22:19;;;;;;;12.82;6.80;;;13.80;99.90;;;;;;5013230;28;20205;-86
2021/06/23 03:24:45;;;;;;;12.77;6.75;;;13.70;99.90;;;;;;5013671;28;20528;-89
2021/06/23 03:27:11;;;;;;;12.38;6.88;;;13.80;99.90;;;;;;5013031;28;20673;-88
2021/06/23 03:29:37;;;;;;;11.48;6.40;;;13.90;99.90;;;;;;5046093;28;20198;-88
2021/06/23 03:32:09;;;;;;;18.00;7.45;;;14.00;99.90;;;;;;5020107;28;20199;-89
2021/06/23 03:34:35;;;;;;;13.10;7.03;;;14.10;99.90;;;;;;5039068;28;20210;-88
2021/06/23 03:37:02;;;;;;;19.90;8.63;;;14.00;99.90;;;;;;5027051;28;20180;-89
2021/06/23 03:39:28;;;;;;;22.67;7.20;;;13.90;99.90;;;;;;5020102;28;20168;-88
2021/06/23 03:41:53;;;;;;;11.48;6.88;;;13.90;99.90;;;;;;5019098;28;20172;-89
2021/06/23 03:44:19;;;;;;;17.38;8.07;;;14.00;99.90;;;;;;5019937;28;20262;-87
2021/06/23 03:46:45;;;;;;;15.48;8.00;;;14.10;99.90;;;;;;5052296;28;20185;-87
2021/06/23 03:49:10;;;;;;;12.30;7.18;;;14.00;99.90;;;;;;5019985;28;20184;-87
2021/06/23 03:51:36;;;;;;;17.60;8.10;;;13.90;99.90;;;;;;5035879;28;20267;-88
2021/06/23 03:54:02;;;;;;;11.80;7.38;;;13.90;99.90;;;;;;5034284;28;20178;-88
2021/06/23 03:56:29;;;;;;;18.17;8.13;;;14.00;99.90;;;;;;5020506;28;20194;-87
2021/06/23 03:58:54;;;;;;;11.18;7.80;;;13.90;99.90;;;;;;5019189;28;20176;-85
2021/06/23 04:01:20;;;;;;;19.80;8.25;;;14.00;99.90;;;;;;5018931;28;20172;-82
2021/06/23 04:03:46;;;;;;;15.43;7.63;;;14.10;99.90;;;;;;5020031;28;20191;-87
2021/06/23 04:06:11;;;;;;;14.02;7.90;;;14.20;99.90;;;;;;5018788;28;20207;-84
2021/06/23 04:08:37;;;;;;;28.40;8.73;;;14.30;99.90;;;;;;5020832;28;20609;-87
2021/06/23 04:11:03;;;;;;;15.13;7.82;;;14.40;99.90;;;;;;5019029;28;20204;-88
2021/06/23 04:13:29;;;;;;;18.60;7.55;;;14.40;99.90;;;;;;5020813;28;20579;-88
2021/06/23 04:15:55;;;;;;;14.18;9.05;;;14.50;99.90;;;;;;5018977;28;20192;-88
2021/06/23 04:18:20;;;;;;;13.98;8.77;;;14.40;99.90;;;;;;5018805;28;20566;-87
2021/06/23 04:20:46;;;;;;;18.95;9.15;;;14.30;99.90;;;;;;5020055;28;20181;-88
2021/06/23 04:23:12;;;;;;;18.67;9.65;;;14.30;99.90;;;;;;5018609;28;20180;-88
2021/06/23 04:25:37;;;;;;;24.77;9.55;;;14.40;99.90;;;;;;5019560;28;20194;-88
2021/06/23 04:28:03;;;;;;;16.08;8.23;;;14.50;99.90;;;;;;5019755;28;20188;-88
2021/06/23 04:30:29;;;;;;;18.83;9.43;;;14.60;99.90;;;;;;5026994;28;20172;-84
2021/06/23 04:32:55;;;;;;;19.95;9.50;;;14.60;99.90;;;;;;5019927;28;20183;-87
2021/06/23 04:35:21;;;;;;;20.10;9.65;;;14.40;99.90;;;;;;5052484;28;20196;-87
2021/06/23 04:37:46;;;;;;;17.15;9.18;;;14.40;99.90;;;;;;5020114;28;20180;-87
2021/06/23 04:40:15;;;;;;;12.10;8.13;;;14.40;99.90;;;;;;5019543;28;20579;-88
2021/06/23 04:42:41;;;;;;;16.33;9.82;;;14.40;99.90;;;;;;5018814;28;20177;-86
2021/06/23 04:45:10;;;;;;;18.13;9.35;;;14.50;99.90;;;;;;5033794;28;20184;-88
2021/06/23 04:47:36;;;;;;;19.77;9.45;;;14.30;99.90;;;;;;5015889;28;20209;-87
2021/06/23 04:50:04;;;;;;;15.07;9.43;;;14.40;99.90;;;;;;5049178;28;20175;-88
2021/06/23 04:52:29;;;;;;;21.25;9.13;;;14.50;99.90;;;;;;5015001;28;20184;-86
2021/06/23 04:54:55;;;;;;;14.85;9.10;;;14.50;99.90;;;;;;5049228;28;20188;-87
2021/06/23 04:57:21;;;;;;;13.35;9.57;;;14.40;99.90;;;;;;5016499;28;20176;-86
2021/06/23 04:59:47;;;;;;;18.88;7.97;;;14.30;99.90;;;;;;5042657;28;20176;-88
2021/06/23 05:02:13;;;;;;;12.25;8.25;;;14.20;99.90;;;;;;5032021;28;20173;-88
2021/06/23 05:04:39;;;;;;;11.27;8.23;;;14.20;99.90;;;;;;5032096;28;20176;-87
2021/06/23 05:07:07;;;;;;;13.68;9.00;;;14.10;99.90;;;;;;5013142;28;20177;-87
2021/06/23 05:09:37;;;;;;;10.85;7.82;;;14.20;99.90;;;;;;5016840;28;20167;-87
2021/06/23 05:12:03;;;;;;;15.45;8.98;;;14.20;99.90;;;;;;5016315;28;20199;-88
2021/06/23 05:14:29;;;;;;;18.27;8.85;;;14.30;99.90;;;;;;5016537;28;20502;-86
2021/06/23 05:16:56;;;;;;;12.82;8.68;;;14.40;99.90;;;;;;5016028;28;20573;-87
2021/06/23 05:19:22;;;;;;;13.82;8.73;;;14.20;99.90;;;;;;5014732;28;20181;-86
2021/06/23 05:21:48;;;;;;;17.35;7.65;;;14.10;99.90;;;;;;5048867;28;20610;-87
2021/06/23 05:24:13;;;;;;;15.38;8.60;;;14.20;99.90;;;;;;5014116;28;20181;-88
2021/06/23 05:26:39;;;;;;;16.52;8.57;;;14.50;99.90;;;;;;5047712;28;20228;-87
2021/06/23 05:29:05;;;;;;;21.60;9.15;;;14.70;99.90;;;;;;5023531;28;20635;-88
2021/06/23 05:31:31;;;;;;;18.48;9.57;;;14.80;99.90;;;;;;5033330;28;20184;-88
2021/06/23 05:33:57;;;;;;;12.27;7.65;;;14.90;99.90;;;;;;5014522;28;20165;-88
2021/06/23 05:36:22;;;;;;;13.63;8.38;;;14.60;99.90;;;;;;5015351;28;20234;-87
2021/06/23 05:38:48;;;;;;;9.95;7.75;;;14.70;99.90;;;;;;5016457;28;20506;-86
2021/06/23 05:41:14;;;;;;;11.10;8.73;;;14.70;99.90;;;;;;5015676;28;20185;-87
2021/06/23 05:43:39;;;;;;;17.63;8.07;;;14.80;99.90;;;;;;5015694;28;20188;-88
2021/06/23 05:46:05;;;;;;;19.17;9.50;;;14.70;99.90;;;;;;5016318;28;20173;-87
2021/06/23 05:48:31;;;;;;;19.52;9.90;;;14.60;99.90;;;;;;5018190;28;20555;-88
2021/06/23 05:50:57;;;;;;;17.15;8.68;;;14.60;99.90;;;;;;5014565;28;20181;-86
2021/06/23 05:53:23;;;;;;;9.55;8.50;;;14.40;99.90;;;;;;5014627;28;20223;-87
2021/06/23 05:55:48;;;;;;;21.85;9.65;;;14.40;99.90;;;;;;5047564;28;20287;-88
2021/06/23 05:58:14;;;;;;;14.73;9.10;;;14.80;99.90;;;;;;5047438;28;20251;-88
2021/06/23 06:00:40;;;;;;;14.60;8.43;;;15.10;99.90;;;;;;5024956;28;20179;-88
2021/06/23 06:03:07;;;;;;;9.77;8.68;;;15.40;99.90;;;;;;5013435;28;20215;-89
2021/06/23 06:05:33;;;;;;;9.45;8.40;;;15.30;99.90;;;;;;5030569;28;20180;-89
2021/06/23 06:07:59;;;;;;;15.15;7.80;;;15.40;99.90;;;;;;5015817;28;20177;-88
2021/06/23 06:10:25;;;;;;;9.93;7.72;;;15.40;99.90;;;;;;5035648;28;20667;-87
2021/06/23 06:12:51;;;;;;;14.07;9.00;;;15.30;99.90;;;;;;5022608;28;20760;-87
2021/06/23 06:15:17;;;;;;;14.82;8.30;;;15.50;99.90;;;;;;5047728;28;20279;-89
2021/06/23 06:17:42;;;;;;;13.43;8.05;;;15.60;99.90;;;;;;5029078;28;20239;-87
2021/06/23 06:20:10;;;;;;;13.40;7.53;;;15.80;99.90;;;;;;5013418;28;20172;-89
2021/06/23 06:22:36;;;;;;;25.33;7.90;;;15.90;99.90;;;;;;5028955;28;20177;-88
2021/06/23 06:25:02;;;;;;;13.77;7.55;;;15.90;99.90;;;;;;5029875;28;20271;-87
2021/06/23 06:27:28;;;;;;;11.52;7.88;;;15.90;99.90;;;;;;5049088;28;20177;-89
2021/06/23 06:29:54;;;;;;;17.15;7.80;;;15.80;99.90;;;;;;5029534;28;20181;-88
2021/06/23 06:32:19;;;;;;;11.18;7.70;;;16.00;99.90;;;;;;5013188;28;20271;-90
2021/06/23 06:34:45;;;;;;;15.50;7.30;;;16.10;99.90;;;;;;5014376;28;20222;-88
2021/06/23 06:37:11;;;;;;;14.77;7.28;;;16.00;99.90;;;;;;5014781;28;20632;-88
2021/06/23 06:39:37;;;;;;;12.85;7.30;;;16.00;99.90;;;;;;5014351;28;20255;-89
2021/06/23 06:42:04;;;;;;;12.23;6.80;;;15.80;99.90;;;;;;5014134;28;20207;-82
2021/06/23 06:44:31;;;;;;;15.70;6.80;;;16.00;99.90;;;;;;5014313;28;20169;-87
2021/06/23 06:46:58;;;;;;;19.35;7.45;;;16.40;99.90;;;;;;5013643;28;20519;-89
2021/06/23 06:49:27;;;;;;;17.52;6.78;;;16.40;99.90;;;;;;4998017;28;20176;-90
2021/06/23 06:51:57;;;;;;;12.75;7.05;;;16.70;99.90;;;;;;5013907;28;20172;-89
2021/06/23 06:54:23;;;;;;;13.63;6.18;;;17.20;99.90;;;;;;5013507;28;20200;-90
2021/06/23 06:56:49;;;;;;;9.95;6.03;;;17.40;99.90;;;;;;5014454;28;20180;-87
2021/06/23 06:59:14;;;;;;;13.63;6.63;;;17.50;99.90;;;;;;5046980;28;20628;-87
2021/06/23 07:01:40;;;;;;;8.40;5.95;;;17.10;99.90;;;;;;5028829;28;20176;-89
2021/06/23 07:04:06;;;;;;;17.95;8.02;;;17.00;99.90;;;;;;5029542;28;20177;-90
2021/06/23 07:06:31;;;;;;;25.40;7.53;;;17.10;99.90;;;;;;5012375;28;20179;-87
2021/06/23 07:08:57;;;;;;;12.30;7.50;;;17.20;99.90;;;;;;5046035;28;20516;-88
2021/06/23 07:11:22;;;;;;;17.65;7.20;;;17.10;99.90;;;;;;5013098;28;20192;-86
2021/06/23 07:13:48;;;;;;;13.48;7.55;;;17.10;99.90;;;;;;5014878;28;20177;-87
2021/06/23 07:16:14;;;;;;;16.00;7.53;;;16.80;99.90;;;;;;5030034;28;20220;-84
2021/06/23 07:18:39;;;;;;;24.95;7.85;;;16.90;99.90;;;;;;5013881;28;20199;-87
2021/06/23 07:21:05;;;;;;;14.93;8.15;;;16.90;99.90;;;;;;5014287;28;20180;-87
2021/06/23 07:23:31;;;;;;;12.68;7.60;;;16.90;99.90;;;;;;5010978;28;20215;-88
2021/06/23 07:25:57;;;;;;;13.80;7.40;;;16.90;99.90;;;;;;5013879;28;20176;-89
2021/06/23 07:28:38;;;;;;;15.68;7.57;;;16.90;99.90;;;;;;5012430;28;20168;-89
2021/06/23 07:31:07;;;;;;;23.85;8.82;;;17.00;99.90;;;;;;5014200;28;20180;-87
2021/06/23 07:33:34;;;;;;;8.18;7.20;;;17.20;99.90;;;;;;5027824;28;20259;-87
2021/06/23 07:38:43;;;;;;;13.38;7.30;;;17.10;99.90;;;;;;5025260;28;20656;-88
2021/06/23 07:41:09;;;;;;;12.98;7.40;;;16.90;99.90;;;;;;5013890;28;20173;-89
2021/06/23 07:43:36;;;;;;;16.55;6.90;;;16.70;99.90;;;;;;5029103;28;20188;-89
2021/06/23 07:46:04;;;;;;;11.00;6.47;;;16.70;99.90;;;;;;5029092;28;20182;-89
2021/06/23 07:48:33;;;;;;;14.77;6.63;;;16.70;99.90;;;;;;5017684;28;20231;-90
2021/06/23 07:54:09;;;;;;;12.85;5.53;;;16.30;99.90;;;;;;5013677;28;20216;-89
2021/06/23 08:09:39;;;;;;;16.10;6.03;;;17.20;99.90;;;;;;5014561;28;20173;-89
2021/06/23 08:14:38;;;;;;;16.02;6.10;;;17.50;99.90;;;;;;5015032;28;20657;-89
2021/06/23 08:17:04;;;;;;;11.10;5.80;;;17.70;99.90;;;;;;5020644;28;20183;-89
2021/06/23 08:19:30;;;;;;;12.93;5.70;;;17.90;99.90;;;;;;5039841;28;20177;-87
2021/06/23 08:21:55;;;;;;;12.80;6.35;;;18.00;99.90;;;;;;5016648;28;20290;-87
2021/06/23 08:24:21;;;;;;;19.30;5.78;;;18.20;99.90;;;;;;5016722;28;20174;-88
2021/06/23 08:26:47;;;;;;;12.93;5.65;;;18.40;99.90;;;;;;5016001;28;20165;-83
2021/06/23 08:29:13;;;;;;;13.85;5.10;;;18.00;99.90;;;;;;5017480;28;20195;-83
2021/06/23 08:31:38;;;;;;;15.68;5.25;;;17.90;99.90;;;;;;5017074;28;20171;-83
2021/06/23 08:34:04;;;;;;;19.83;6.20;;;18.00;99.90;;;;;;5015700;28;20259;-84
2021/06/23 08:36:30;;;;;;;10.68;5.00;;;17.90;99.90;;;;;;5017138;28;20248;-83
2021/06/23 08:38:56;;;;;;;14.15;5.38;;;18.00;99.90;;;;;;5023063;28;20174;-85
2021/06/23 08:41:26;;;;;;;21.13;5.82;;;17.70;99.90;;;;;;5035467;28;20168;-83
2021/06/23 09:06:50;;;;;;;13.38;4.22;;;19.70;99.90;;;;;;5008372;28;20276;-82
2021/06/23 09:15:04;;;;;;;17.80;4.85;;;18.90;99.90;;;;;;5014030;28;20687;-87
2021/06/23 09:17:30;;;;;;;16.65;5.47;;;18.80;99.90;;;;;;5004344;28;20208;-88
2021/06/23 09:57:47;;;;;;;14.70;4.68;;;18.50;99.90;;;;;;5053513;28;20286;-83
2021/06/23 10:00:13;;;;;;;8.15;3.88;;;18.70;99.90;;;;;;5012652;28;20278;-84
2021/06/23 10:02:38;;;;;;;10.38;4.10;;;18.80;99.90;;;;;;5013785;28;20193;-83
2021/06/23 10:05:13;;;;;;;7.90;4.40;;;19.00;99.90;;;;;;4997481;28;20172;-83
2021/06/23 10:07:48;;;;;;;8.45;4.22;;;19.30;99.90;;;;;;5011720;28;20169;-84
2021/06/23 10:10:16;;;;;;;11.38;4.22;;;18.80;99.90;;;;;;5016478;28;20258;-86
2021/06/23 10:12:43;;;;;;;11.50;4.18;;;18.80;99.90;;;;;;5033036;28;20208;-84
2021/06/23 10:15:09;;;;;;;12.30;4.25;;;18.40;99.90;;;;;;5036653;28;20204;-84
2021/06/23 10:17:37;;;;;;;11.90;4.78;;;18.70;99.90;;;;;;5036504;28;20214;-85
2021/06/23 10:20:04;;;;;;;15.98;4.70;;;18.90;99.90;;;;;;5043083;28;20164;-84
2021/06/23 10:22:34;;;;;;;13.30;4.80;;;19.00;99.90;;;;;;5016010;28;20230;-84
2021/06/23 10:25:04;;;;;;;8.60;4.45;;;19.00;99.90;;;;;;5034040;28;20168;-84
2021/06/23 10:27:32;;;;;;;10.55;4.18;;;18.60;99.90;;;;;;5016364;28;20179;-84
2021/06/23 10:30:00;;;;;;;9.80;3.85;;;18.30;99.90;;;;;;5032361;28;20167;-84
2021/06/23 10:32:27;;;;;;;13.68;4.70;;;18.70;99.90;;;;;;5052812;28;20171;-85
2021/06/23 10:34:52;;;;;;;8.73;4.00;;;18.80;99.90;;;;;;5036009;28;20199;-84
2021/06/23 10:37:22;;;;;;;10.20;4.13;;;18.80;99.90;;;;;;5052991;28;20274;-82
2021/06/23 10:39:49;;;;;;;11.90;4.25;;;19.10;99.90;;;;;;5053249;28;20581;-84
2021/06/23 10:42:15;;;;;;;14.00;4.13;;;18.90;99.90;;;;;;5046808;28;20246;-86
2021/06/23 10:44:47;;;;;;;12.80;4.80;;;19.00;99.90;;;;;;5035272;28;20180;-83
2021/06/23 10:50:55;;;;;;;16.88;5.28;;;19.30;99.90;;;;;;5050795;28;20159;-84
2021/06/23 10:53:34;;;;;;;10.43;4.28;;;19.90;99.90;;;;;;4973446;28;20216;-90
2021/06/23 10:56:03;;;;;;;8.60;4.38;;;19.90;99.90;;;;;;4996296;28;20208;-89
2021/06/23 10:58:31;;;;;;;17.38;5.32;;;20.10;99.90;;;;;;4991336;28;20311;-80
2021/06/23 11:01:14;;;;;;;10.40;4.30;;;20.40;99.90;;;;;;5031303;28;20678;-89
2021/06/23 11:04:03;;;;;;;11.30;4.47;;;19.80;99.90;;;;;;5052869;28;20167;-90
2021/06/23 11:06:45;;;;;;;7.75;4.35;;;19.20;99.90;;;;;;5054284;28;20169;-87
2021/06/23 11:09:27;;;;;;;17.48;4.00;;;19.40;99.90;;;;;;5053897;28;20174;-89
2021/06/23 11:25:53;;;;;;;10.60;4.25;;;20.00;99.90;;;;;;5053497;28;20185;-91
2021/06/23 11:28:26;;;;;;;19.75;5.63;;;20.40;99.90;;;;;;5035717;28;20191;-91
2021/06/23 11:30:52;;;;;;;13.07;5.60;;;20.60;99.90;;;;;;5062167;28;20210;-92
2021/06/23 11:33:26;;;;;;;13.73;4.85;;;20.80;99.90;;;;;;5058003;28;20528;-83
2021/06/23 11:35:56;;;;;;;15.55;5.85;;;21.20;99.90;;;;;;5050265;28;20290;-82
2021/06/23 11:38:22;;;;;;;10.68;4.82;;;21.30;99.90;;;;;;5051429;28;20536;-82
2021/06/23 11:40:48;;;;;;;14.15;5.38;;;21.50;99.90;;;;;;5073349;28;20558;-85
2021/06/23 11:43:14;;;;;;;10.13;4.82;;;21.70;99.90;;;;;;5057029;28;20205;-80
2021/06/23 11:45:40;;;;;;;16.92;5.57;;;22.30;99.90;;;;;;5056149;28;20188;-79
2021/06/23 11:48:06;;;;;;;15.93;5.10;;;22.20;99.90;;;;;;5035051;28;20159;-79
2021/06/23 12:04:07;;;;;;;10.38;5.00;;;22.30;99.90;;;;;;5055572;28;20535;-91
2021/06/23 12:06:33;;;;;;;9.82;5.20;;;22.40;99.90;;;;;;5056803;28;20176;-93
2021/06/23 12:08:59;;;;;;;7.85;5.10;;;23.20;99.90;;;;;;5057770;28;20167;-88
2021/06/23 12:11:24;;;;;;;13.02;4.78;;;22.90;99.90;;;;;;5057141;28;20175;-90
2021/06/23 12:13:50;;;;;;;11.68;5.45;;;23.10;99.90;;;;;;5055659;28;20175;-89
2021/06/23 12:16:16;;;;;;;9.23;5.10;;;23.80;99.90;;;;;;5040835;28;20253;-90
2021/06/23 12:18:42;;;;;;;9.57;4.72;;;23.60;99.90;;;;;;5056857;28;20575;-91
2021/06/23 12:21:07;;;;;;;16.17;5.20;;;23.20;99.90;;;;;;5056755;28;20225;-89
2021/06/23 12:23:35;;;;;;;8.82;5.10;;;23.00;99.90;;;;;;5057538;28;20671;-87
2021/06/23 12:26:00;;;;;;;8.85;4.90;;;21.80;99.90;;;;;;5038137;28;20633;-79
2021/06/23 12:28:26;;;;;;;11.43;5.63;;;21.20;99.90;;;;;;5054869;28;20164;-84
2021/06/23 12:30:52;;;;;;;14.20;5.28;;;21.60;99.90;;;;;;5058267;28;20163;-83
2021/06/23 12:33:18;;;;;;;9.60;5.40;;;21.80;99.90;;;;;;5055132;28;20569;-81
2021/06/23 12:35:46;;;;;;;9.30;5.68;;;22.20;99.90;;;;;;5071531;28;20234;-89
2021/06/23 12:38:16;;;;;;;8.77;5.20;;;22.10;99.90;;;;;;5055857;28;20568;-77
2021/06/23 12:40:43;;;;;;;12.07;5.78;;;21.80;99.90;;;;;;5037438;28;20534;-77
2021/06/23 12:43:11;;;;;;;9.15;5.40;;;21.50;99.90;;;;;;5056244;28;20584;-81
2021/06/23 12:45:50;;;;;;;11.98;5.93;;;21.10;99.90;;;;;;5037724;28;20175;-80
2021/06/23 12:48:17;;;;;;;8.50;5.57;;;20.70;99.90;;;;;;5056202;28;20514;-81
2021/06/23 12:50:43;;;;;;;12.93;5.43;;;21.20;99.90;;;;;;5055874;28;20183;-82
2021/06/23 12:53:09;;;;;;;12.80;5.57;;;20.90;99.90;;;;;;5055542;28;20167;-81
2021/06/23 12:55:34;;;;;;;7.47;5.82;;;20.50;99.90;;;;;;5057795;28;20199;-83
2021/06/23 12:58:00;;;;;;;9.35;5.65;;;20.60;99.90;;;;;;5054417;28;20182;-84
2021/06/23 13:00:26;;;;;;;7.15;6.10;;;20.10;99.90;;;;;;5055629;28;20205;-80
2021/06/23 13:02:52;;;;;;;12.35;5.97;;;20.40;99.90;;;;;;5054979;28;20266;-80
2021/06/23 13:05:18;;;;;;;16.55;6.25;;;20.60;99.90;;;;;;5043920;28;20191;-80
2021/06/23 13:07:45;;;;;;;13.35;5.70;;;20.70;99.90;;;;;;5055262;28;20564;-80
2021/06/23 13:10:15;;;;;;;24.52;7.50;;;20.70;99.90;;;;;;5055064;28;20163;-76
2021/06/23 13:12:41;;;;;;;10.60;6.10;;;20.90;99.90;;;;;;5072010;28;20298;-82
2021/06/23 13:15:08;;;;;;;7.25;4.78;;;20.70;99.90;;;;;;5056065;28;20186;-78
2021/06/23 13:17:34;;;;;;;17.83;6.57;;;21.20;99.90;;;;;;5064439;28;20529;-79
2021/06/23 13:20:01;;;;;;;9.73;5.80;;;21.80;99.90;;;;;;5055319;28;20246;-81
2021/06/23 13:22:26;;;;;;;14.15;5.53;;;21.60;99.90;;;;;;5055033;28;20163;-79
2021/06/23 13:24:52;;;;;;;10.30;5.70;;;21.80;99.90;;;;;;5056789;28;20615;-79
2021/06/23 13:27:18;;;;;;;11.50;5.55;;;21.90;99.90;;;;;;5067198;28;20175;-79
2021/06/23 13:29:43;;;;;;;8.90;6.05;;;21.60;99.90;;;;;;5036891;28;20164;-84
2021/06/23 13:32:11;;;;;;;15.60;5.90;;;21.80;99.90;;;;;;5036513;28;20278;-83
2021/06/23 13:34:38;;;;;;;20.95;6.35;;;22.10;99.90;;;;;;5054396;28;20655;-83
2021/06/23 13:37:07;;;;;;;13.23;5.82;;;22.10;99.90;;;;;;5059812;28;20229;-84
2021/06/23 13:39:34;;;;;;;12.70;5.82;;;22.00;99.90;;;;;;5056644;28;20169;-85
2021/06/23 13:42:00;;;;;;;16.35;5.78;;;22.10;99.90;;;;;;5074532;28;20173;-83
2021/06/23 13:44:26;;;;;;;15.13;6.15;;;22.30;99.90;;;;;;5055900;28;20178;-83
2021/06/23 13:46:52;;;;;;;13.52;6.13;;;22.30;99.90;;;;;;5071319;28;20270;-84
2021/06/23 13:49:18;;;;;;;12.70;6.07;;;22.30;99.90;;;;;;5036801;28;20171;-82
2021/06/23 13:51:44;;;;;;;17.23;6.78;;;22.10;99.90;;;;;;5047778;28;20213;-83
2021/06/23 13:54:10;;;;;;;10.60;5.70;;;22.00;99.90;;;;;;5051959;28;20211;-85
2021/06/23 13:56:36;;;;;;;12.48;5.50;;;21.90;99.90;;;;;;5054633;28;20294;-86
2021/06/23 13:59:02;;;;;;;14.82;5.85;;;21.90;99.90;;;;;;5055038;28;20163;-84
2021/06/23 14:01:28;;;;;;;16.45;6.90;;;22.10;99.90;;;;;;5056191;28;20171;-92
2021/06/23 14:03:55;;;;;;;14.07;7.07;;;21.60;99.90;;;;;;5053112;28;20194;-79
2021/06/23 14:06:22;;;;;;;11.80;6.93;;;21.30;99.90;;;;;;5054677;28;20163;-79
2021/06/23 14:08:48;;;;;;;14.25;7.05;;;21.50;99.90;;;;;;5089452;28;20179;-84
2021/06/23 14:11:13;;;;;;;13.77;6.22;;;21.80;99.90;;;;;;5090584;28;20166;-83
2021/06/23 14:13:39;;;;;;;12.48;6.10;;;22.30;99.90;;;;;;5069626;28;20186;-92
2021/06/23 14:16:05;;;;;;;13.95;6.47;;;22.50;99.90;;;;;;5055480;28;20655;-94
2021/06/23 14:18:31;;;;;;;12.30;5.65;;;22.40;99.90;;;;;;5053890;28;20177;-86
2021/06/23 14:20:57;;;;;;;13.38;5.93;;;22.20;99.90;;;;;;5036128;28;20525;-81
2021/06/23 14:23:23;;;;;;;15.57;6.03;;;22.30;99.90;;;;;;5037172;28;20254;-81
2021/06/23 14:25:50;;;;;;;16.92;5.45;;;22.60;99.90;;;;;;5054519;28;20183;-81
2021/06/23 14:28:16;;;;;;;7.90;5.60;;;22.70;99.90;;;;;;5054061;28;20168;-83
2021/06/23 14:30:42;;;;;;;10.55;5.20;;;22.70;99.90;;;;;;5053417;28;20519;-84
2021/06/23 14:33:08;;;;;;;12.45;6.45;;;22.70;99.90;;;;;;5052714;28;20191;-83
2021/06/23 14:35:34;;;;;;;17.38;6.05;;;22.60;99.90;;;;;;5072879;28;20267;-83
2021/06/23 14:37:59;;;;;;;10.75;6.28;;;22.60;99.90;;;;;;5073195;28;20725;-84